Time;durP1;ratioP1;P1;durP2;ratioP2;P2;SDS_P1;SDS_P2;PMS_P1;PMS_P2;Temp;Humidity;BMP_temperature;BMP_pressure;BME280_temperature;BME280_humidity;BME280_pressure;Samples;Min_cycle;Max_cycle;Signal;HPM_P1;HPM_P2
2021/12/21 00:02:21;;;;;;;8.38;4.30;;;0.10;99.90;;;;;;5012411;28;20042;-74
2021/12/21 00:04:46;;;;;;;11.68;4.50;;;0.20;99.90;;;;;;5012678;28;20040;-74
2021/12/21 00:07:12;;;;;;;8.15;3.78;;;0.20;99.90;;;;;;5011562;28;20048;-74
2021/12/21 00:09:37;;;;;;;6.90;4.85;;;0.20;99.90;;;;;;5012831;28;20096;-73
2021/12/21 00:12:03;;;;;;;9.82;4.55;;;0.00;99.90;;;;;;5012490;28;20042;-74
2021/12/21 00:14:44;;;;;;;12.80;4.45;;;0.10;99.90;;;;;;5011476;28;20085;-73
2021/12/21 00:17:17;;;;;;;10.40;4.40;;;0.20;99.90;;;;;;4995271;28;20044;-73
2021/12/21 00:24:52;;;;;;;8.88;4.28;;;0.00;99.90;;;;;;5015077;28;20078;-73
2021/12/21 00:27:17;;;;;;;8.60;4.70;;;0.00;99.90;;;;;;5011066;28;20049;-74
2021/12/21 00:29:43;;;;;;;8.05;4.65;;;0.00;99.90;;;;;;5012302;28;20046;-74
2021/12/21 00:32:09;;;;;;;9.00;4.93;;;0.00;99.90;;;;;;5021155;28;20037;-74
2021/12/21 00:34:35;;;;;;;8.38;3.85;;;-0.10;99.90;;;;;;5031705;28;20120;-74
2021/12/21 00:37:01;;;;;;;11.02;4.85;;;0.00;99.90;;;;;;5032140;28;20235;-74
2021/12/21 00:39:26;;;;;;;7.75;4.68;;;-0.10;99.90;;;;;;5032165;28;20038;-74
2021/12/21 00:41:52;;;;;;;11.20;4.60;;;-0.10;99.90;;;;;;5030854;28;20045;-74
2021/12/21 00:44:17;;;;;;;10.40;4.88;;;-0.10;99.90;;;;;;5042254;28;20030;-73
2021/12/21 00:46:44;;;;;;;8.40;3.95;;;-0.20;99.90;;;;;;5054898;28;20071;-74
2021/12/21 00:49:14;;;;;;;9.70;4.47;;;-0.30;99.90;;;;;;5038516;28;20113;-74
2021/12/21 00:51:42;;;;;;;8.20;4.03;;;-0.30;99.90;;;;;;5030721;28;20087;-74
2021/12/21 00:54:09;;;;;;;9.35;4.55;;;-0.30;99.90;;;;;;5030315;28;20053;-74
2021/12/21 00:56:34;;;;;;;9.38;5.22;;;-0.20;99.90;;;;;;5031703;28;20055;-74
2021/12/21 00:59:00;;;;;;;8.73;4.45;;;-0.30;99.90;;;;;;5030295;28;20132;-74
2021/12/21 01:01:25;;;;;;;7.72;4.18;;;-0.20;99.90;;;;;;5032135;28;20117;-73
2021/12/21 01:03:53;;;;;;;6.93;4.18;;;-0.20;99.90;;;;;;5031283;28;20046;-73
2021/12/21 01:06:38;;;;;;;7.20;4.40;;;-0.10;99.90;;;;;;5031578;28;20051;-74
2021/12/21 01:12:08;;;;;;;7.82;4.57;;;-0.40;99.90;;;;;;5007701;28;20298;-74
2021/12/21 01:15:00;;;;;;;7.40;4.63;;;-0.30;99.90;;;;;;5013692;28;20041;-74
2021/12/21 01:17:27;;;;;;;6.95;4.97;;;-0.20;99.90;;;;;;5029888;28;20045;-73
2021/12/21 01:20:25;;;;;;;7.68;4.70;;;-0.10;99.90;;;;;;5030133;28;20374;-74
2021/12/21 01:23:16;;;;;;;9.77;4.60;;;-0.20;99.90;;;;;;5029618;28;20676;-74
2021/12/21 01:30:48;;;;;;;10.18;5.47;;;-0.30;99.90;;;;;;5030809;28;20068;-74
2021/12/21 01:35:46;;;;;;;12.48;4.80;;;-0.30;99.90;;;;;;5029788;28;20128;-74
2021/12/21 01:38:21;;;;;;;10.77;5.80;;;-0.30;99.90;;;;;;5029676;28;20103;-74
2021/12/21 01:51:10;;;;;;;8.32;5.65;;;-0.40;99.90;;;;;;5034613;28;20122;-73
2021/12/21 01:53:37;;;;;;;12.10;6.30;;;-0.30;99.90;;;;;;5029572;28;20084;-74
2021/12/21 01:56:03;;;;;;;11.63;5.95;;;-0.40;99.90;;;;;;5029726;28;20052;-74
2021/12/21 01:58:29;;;;;;;9.55;6.18;;;-0.30;99.90;;;;;;5029872;28;20417;-74
2021/12/21 02:00:55;;;;;;;11.40;6.85;;;-0.40;99.90;;;;;;5037873;28;20049;-74
2021/12/21 02:03:21;;;;;;;10.30;6.63;;;-0.40;99.90;;;;;;5057323;28;20052;-74
2021/12/21 02:05:46;;;;;;;12.05;7.43;;;-0.40;99.90;;;;;;5044011;28;20034;-74
2021/12/21 02:08:12;;;;;;;12.43;7.63;;;-0.40;99.90;;;;;;5030997;28;20086;-74
2021/12/21 02:10:39;;;;;;;14.30;7.88;;;-0.40;99.90;;;;;;5029635;28;20041;-74
2021/12/21 02:13:04;;;;;;;17.50;7.70;;;-0.40;99.90;;;;;;5030992;28;20049;-74
2021/12/21 02:15:30;;;;;;;11.48;7.22;;;-0.40;99.90;;;;;;5031360;28;20068;-74
2021/12/21 02:20:38;;;;;;;14.70;8.43;;;-0.40;99.90;;;;;;5030784;28;20120;-74
2021/12/21 02:23:18;;;;;;;16.73;8.90;;;-0.50;99.90;;;;;;5030626;28;20041;-74
2021/12/21 02:30:54;;;;;;;16.42;9.60;;;-0.50;99.90;;;;;;5030795;28;20046;-74
2021/12/21 02:33:21;;;;;;;14.70;8.65;;;-0.50;99.90;;;;;;5030427;28;20041;-74
2021/12/21 02:35:46;;;;;;;13.85;8.45;;;-0.60;99.90;;;;;;5030593;28;20033;-74
2021/12/21 02:38:12;;;;;;;14.40;8.15;;;-0.60;99.90;;;;;;5029210;28;20064;-74
2021/12/21 02:40:39;;;;;;;13.90;7.75;;;-0.70;99.90;;;;;;5029195;28;20133;-74
2021/12/21 02:43:05;;;;;;;11.57;8.02;;;-0.70;99.90;;;;;;5030897;28;20609;-74
2021/12/21 02:45:31;;;;;;;13.50;9.02;;;-0.70;99.90;;;;;;5032745;28;20121;-74
2021/12/21 02:47:57;;;;;;;13.52;7.97;;;-0.70;99.90;;;;;;5049293;28;20117;-74
2021/12/21 02:50:23;;;;;;;15.32;8.65;;;-0.80;99.90;;;;;;5032938;28;20072;-74
2021/12/21 02:52:50;;;;;;;15.93;8.30;;;-0.70;99.90;;;;;;5033514;28;20116;-74
2021/12/21 02:55:16;;;;;;;13.70;8.15;;;-0.80;99.90;;;;;;5032550;28;20100;-74
2021/12/21 02:57:42;;;;;;;14.15;8.93;;;-0.80;99.90;;;;;;5033692;28;20041;-74
2021/12/21 03:00:10;;;;;;;13.57;8.35;;;-0.70;99.90;;;;;;5032794;28;20060;-74
2021/12/21 03:02:36;;;;;;;13.52;8.30;;;-0.70;99.90;;;;;;5032229;28;20051;-74
2021/12/21 03:05:01;;;;;;;12.25;7.75;;;-0.70;99.90;;;;;;5032748;28;20132;-74
2021/12/21 03:08:00;;;;;;;9.18;6.63;;;-0.80;99.90;;;;;;5015953;28;20099;-73
2021/12/21 03:10:22;;;;;;;14.30;8.55;;;-0.80;99.90;;;;;;5033552;28;20057;-73
2021/12/21 03:15:29;;;;;;;15.32;7.45;;;-0.80;99.90;;;;;;5037581;28;19923;-73
2021/12/21 03:17:56;;;;;;;11.43;8.32;;;-0.90;99.90;;;;;;5044985;28;20045;-73
2021/12/21 03:20:23;;;;;;;14.27;8.77;;;-0.90;99.90;;;;;;5053362;28;20048;-74
2021/12/21 03:22:49;;;;;;;11.63;8.25;;;-0.80;99.90;;;;;;5059660;28;20025;-74
2021/12/21 03:25:15;;;;;;;13.93;8.52;;;-0.80;99.90;;;;;;5040650;28;20099;-74
2021/12/21 03:27:41;;;;;;;17.83;8.23;;;-0.80;99.90;;;;;;5032893;28;20413;-73
2021/12/21 03:30:10;;;;;;;11.85;7.63;;;-0.90;99.90;;;;;;5034042;28;20047;-74
2021/12/21 03:32:36;;;;;;;12.23;8.52;;;-0.80;99.90;;;;;;5033460;28;20044;-74
2021/12/21 03:35:01;;;;;;;14.23;8.88;;;-0.80;99.90;;;;;;5033381;28;20045;-74
2021/12/21 03:37:27;;;;;;;14.48;8.98;;;-0.80;99.90;;;;;;5033412;28;20037;-74
2021/12/21 03:39:54;;;;;;;18.23;8.80;;;-0.80;99.90;;;;;;5033207;28;20049;-74
2021/12/21 03:42:20;;;;;;;11.48;8.07;;;-0.70;99.90;;;;;;5031635;28;20037;-73
2021/12/21 03:44:47;;;;;;;14.90;8.32;;;-0.90;99.90;;;;;;5033065;28;20060;-73
2021/12/21 03:47:16;;;;;;;17.02;8.43;;;-0.90;99.90;;;;;;5032946;28;20110;-73
2021/12/21 03:52:19;;;;;;;16.52;9.27;;;-0.90;99.90;;;;;;5032773;28;20041;-73
2021/12/21 03:54:48;;;;;;;16.42;8.27;;;-1.00;99.90;;;;;;5031360;28;20544;-73
2021/12/21 03:57:15;;;;;;;13.77;8.18;;;-1.00;99.90;;;;;;5032821;28;20112;-73
2021/12/21 03:59:42;;;;;;;13.57;8.70;;;-0.90;99.90;;;;;;5032904;28;20033;-74
2021/12/21 04:02:10;;;;;;;11.45;8.15;;;-0.90;99.90;;;;;;5032346;28;20068;-73
2021/12/21 04:04:36;;;;;;;11.90;8.13;;;-0.90;99.90;;;;;;5031211;28;20041;-74
2021/12/21 04:07:02;;;;;;;10.20;8.35;;;-1.00;99.90;;;;;;5032514;28;20397;-73
2021/12/21 04:09:27;;;;;;;14.85;8.77;;;-0.90;99.90;;;;;;5031068;28;20045;-74
2021/12/21 04:11:53;;;;;;;14.00;8.95;;;-0.90;99.90;;;;;;5032104;28;20045;-74
2021/12/21 04:14:20;;;;;;;13.43;9.40;;;-1.00;99.90;;;;;;5032522;28;20033;-73
2021/12/21 04:16:45;;;;;;;14.70;8.15;;;-0.90;99.90;;;;;;5031302;28;20465;-74
2021/12/21 04:19:12;;;;;;;16.55;9.20;;;-0.90;99.90;;;;;;5031109;28;20084;-74
2021/12/21 04:21:38;;;;;;;15.43;8.75;;;-0.90;99.90;;;;;;5031183;28;20083;-73
2021/12/21 04:24:04;;;;;;;15.25;9.40;;;-1.00;99.90;;;;;;5030772;28;20045;-74
2021/12/21 04:26:29;;;;;;;13.77;9.20;;;-1.00;99.90;;;;;;5031197;28;20383;-73
2021/12/21 04:28:55;;;;;;;15.43;9.20;;;-1.00;99.90;;;;;;5030485;28;20037;-74
2021/12/21 04:31:20;;;;;;;15.65;9.52;;;-1.00;99.90;;;;;;5031981;28;20627;-74
2021/12/21 04:33:46;;;;;;;13.05;8.65;;;-1.00;99.90;;;;;;5031945;28;20087;-74
2021/12/21 04:36:13;;;;;;;14.32;9.93;;;-1.00;99.90;;;;;;5041190;28;20033;-73
2021/12/21 04:38:44;;;;;;;11.75;7.75;;;-1.00;99.90;;;;;;5049296;28;20110;-73
2021/12/21 04:41:15;;;;;;;14.85;7.80;;;-1.00;99.90;;;;;;5034876;28;20413;-74
2021/12/21 04:43:42;;;;;;;14.52;8.15;;;-1.00;99.90;;;;;;5036271;28;20673;-73
2021/12/21 04:46:09;;;;;;;11.57;8.23;;;-1.00;99.90;;;;;;5036795;28;20040;-73
2021/12/21 04:48:35;;;;;;;13.07;7.95;;;-1.00;99.90;;;;;;5030463;28;20064;-74
2021/12/21 04:51:01;;;;;;;12.27;7.78;;;-1.00;99.90;;;;;;5031737;28;20410;-74
2021/12/21 04:53:26;;;;;;;19.15;8.23;;;-1.00;99.90;;;;;;5030121;28;20541;-74
2021/12/21 04:55:52;;;;;;;14.48;9.07;;;-1.10;99.90;;;;;;5031721;28;20112;-74
2021/12/21 04:58:18;;;;;;;12.80;8.18;;;-1.10;99.90;;;;;;5030463;28;20560;-74
2021/12/21 05:00:48;;;;;;;16.67;8.13;;;-1.10;99.90;;;;;;5031745;28;20049;-74
2021/12/21 05:03:14;;;;;;;17.42;8.27;;;-1.10;99.90;;;;;;5029806;28;20042;-73
2021/12/21 05:05:40;;;;;;;14.57;7.80;;;-1.10;99.90;;;;;;5029737;28;20118;-73
2021/12/21 05:10:44;;;;;;;15.20;8.82;;;-1.20;99.90;;;;;;5030381;28;20084;-73
2021/12/21 05:13:10;;;;;;;26.00;10.20;;;-1.20;99.90;;;;;;5030172;28;20048;-74
2021/12/21 05:15:36;;;;;;;15.68;10.07;;;-1.20;99.90;;;;;;5030142;28;20049;-73
2021/12/21 05:18:01;;;;;;;19.50;10.35;;;-1.20;99.90;;;;;;5030102;28;20128;-73
2021/12/21 05:20:27;;;;;;;18.30;10.18;;;-1.20;99.90;;;;;;5031319;28;20045;-73
2021/12/21 05:22:53;;;;;;;21.17;10.45;;;-1.30;99.90;;;;;;5029527;28;20429;-73
2021/12/21 05:25:18;;;;;;;20.40;9.98;;;-1.20;99.90;;;;;;5030761;28;20493;-73
2021/12/21 05:27:44;;;;;;;21.02;10.15;;;-1.20;99.90;;;;;;5031011;28;20033;-73
2021/12/21 05:30:11;;;;;;;20.17;9.85;;;-1.30;99.90;;;;;;5031339;28;20069;-73
2021/12/21 05:32:37;;;;;;;15.68;9.15;;;-1.30;99.90;;;;;;5031020;28;20041;-73
2021/12/21 05:35:03;;;;;;;18.33;8.77;;;-1.20;99.90;;;;;;5030449;28;20057;-74
2021/12/21 05:37:29;;;;;;;18.73;9.25;;;-1.30;99.90;;;;;;5029882;28;20037;-74
2021/12/21 05:39:58;;;;;;;15.00;8.98;;;-1.20;99.90;;;;;;5029696;28;20038;-73
2021/12/21 05:42:27;;;;;;;15.02;8.90;;;-1.30;99.90;;;;;;5030681;28;20683;-73
2021/12/21 05:44:53;;;;;;;16.15;8.77;;;-1.30;99.90;;;;;;5031312;28;20051;-73
2021/12/21 05:47:19;;;;;;;14.23;8.32;;;-1.40;99.90;;;;;;5031074;28;20406;-74
2021/12/21 05:49:45;;;;;;;14.55;9.27;;;-1.30;99.90;;;;;;5029604;28;20041;-73
2021/12/21 05:52:11;;;;;;;13.70;8.35;;;-1.30;99.90;;;;;;5029980;28;20414;-74
2021/12/21 05:54:37;;;;;;;13.32;8.23;;;-1.30;99.90;;;;;;5032450;28;20061;-73
2021/12/21 05:57:03;;;;;;;13.25;8.18;;;-1.30;99.90;;;;;;5050521;28;20053;-73
2021/12/21 05:59:29;;;;;;;14.52;8.57;;;-1.40;99.90;;;;;;5035034;28;20045;-73
2021/12/21 06:01:55;;;;;;;13.82;8.88;;;-1.30;99.90;;;;;;5029659;28;20041;-72
2021/12/21 06:04:21;;;;;;;14.35;8.40;;;-1.40;99.90;;;;;;5030202;28;20063;-73
2021/12/21 06:06:47;;;;;;;14.07;8.25;;;-1.40;99.90;;;;;;5029585;28;20042;-73
2021/12/21 06:09:14;;;;;;;15.45;8.32;;;-1.40;99.90;;;;;;5029551;28;20041;-72
2021/12/21 06:12:02;;;;;;;11.75;8.02;;;-1.40;99.90;;;;;;5031967;28;20064;-72
2021/12/21 06:28:03;;;;;;;13.48;8.23;;;-1.60;99.90;;;;;;5016819;28;20045;-73
2021/12/21 06:30:29;;;;;;;16.20;9.32;;;-1.50;99.90;;;;;;5034315;28;20044;-73
2021/12/21 06:32:55;;;;;;;13.50;8.85;;;-1.50;99.90;;;;;;5032692;28;20041;-73
2021/12/21 06:35:21;;;;;;;19.90;9.70;;;-1.40;99.90;;;;;;5033234;28;20048;-73
2021/12/21 06:37:47;;;;;;;16.48;9.07;;;-1.50;99.90;;;;;;5034137;28;20071;-73
2021/12/21 06:40:12;;;;;;;14.25;9.25;;;-1.50;99.90;;;;;;5034312;28;20037;-73
2021/12/21 06:42:39;;;;;;;15.45;7.80;;;-1.60;99.90;;;;;;5033634;28;20041;-72
2021/12/21 06:45:12;;;;;;;13.77;8.30;;;-1.60;99.90;;;;;;5034383;28;20040;-72
2021/12/21 06:53:07;;;;;;;11.93;8.63;;;-1.40;99.90;;;;;;5034222;28;20045;-71
2021/12/21 06:55:32;;;;;;;16.67;8.57;;;-1.40;99.90;;;;;;5034285;28;20124;-71
2021/12/21 06:57:58;;;;;;;17.45;9.25;;;-1.50;99.90;;;;;;5033805;28;20481;-71
2021/12/21 07:00:23;;;;;;;11.48;8.15;;;-1.50;99.90;;;;;;5032671;28;20052;-71
2021/12/21 07:02:49;;;;;;;15.00;8.10;;;-1.50;99.90;;;;;;5033651;28;20038;-71
2021/12/21 07:05:15;;;;;;;14.45;8.00;;;-1.50;99.90;;;;;;5033933;28;20123;-71
2021/12/21 07:07:41;;;;;;;12.70;8.88;;;-1.60;99.90;;;;;;5032669;28;20478;-71
2021/12/21 07:10:11;;;;;;;14.25;8.20;;;-1.60;99.90;;;;;;5030496;28;20061;-71
2021/12/21 07:20:32;;;;;;;11.20;7.38;;;-1.60;99.90;;;;;;5035074;28;20064;-71
2021/12/21 07:23:00;;;;;;;14.82;7.60;;;-1.60;99.90;;;;;;5031651;28;20065;-71
2021/12/21 07:25:27;;;;;;;16.17;7.93;;;-1.70;99.90;;;;;;5037448;28;20041;-71
2021/12/21 07:27:53;;;;;;;11.88;8.27;;;-1.60;99.90;;;;;;5032974;28;20517;-71
2021/12/21 07:30:19;;;;;;;16.02;9.13;;;-1.60;99.90;;;;;;5034930;28;20052;-71
2021/12/21 07:32:44;;;;;;;12.93;8.65;;;-1.60;99.90;;;;;;5047235;28;20045;-71
2021/12/21 07:35:12;;;;;;;24.20;9.13;;;-1.60;99.90;;;;;;5050672;28;20037;-72
2021/12/21 07:37:38;;;;;;;16.13;8.68;;;-1.70;99.90;;;;;;5034973;28;20051;-71
2021/12/21 07:40:08;;;;;;;16.17;7.78;;;-1.60;99.90;;;;;;5051895;28;20045;-71
2021/12/21 07:42:33;;;;;;;14.43;7.82;;;-1.70;99.90;;;;;;5069392;28;20052;-70
2021/12/21 07:44:59;;;;;;;12.88;7.63;;;-1.60;99.90;;;;;;5068310;28;20501;-71
2021/12/21 07:47:25;;;;;;;11.95;8.32;;;-1.70;99.90;;;;;;5025563;28;20042;-72
2021/12/21 07:49:51;;;;;;;14.70;8.15;;;-1.80;99.90;;;;;;5013485;28;20068;-71
2021/12/21 07:52:18;;;;;;;11.20;7.78;;;-1.70;99.90;;;;;;5011841;28;20103;-71
2021/12/21 07:54:44;;;;;;;11.85;7.65;;;-1.60;99.90;;;;;;5013003;28;20127;-71
2021/12/21 07:57:09;;;;;;;11.48;7.88;;;-1.70;99.90;;;;;;5013035;28;20173;-71
2021/12/21 07:59:37;;;;;;;17.27;7.65;;;-1.70;99.90;;;;;;5012872;28;20121;-71
2021/12/21 08:02:03;;;;;;;13.75;8.57;;;-1.60;99.90;;;;;;5011128;28;20677;-71
2021/12/21 08:04:29;;;;;;;13.40;7.95;;;-1.60;99.90;;;;;;5035468;28;20045;-70
2021/12/21 08:06:59;;;;;;;15.93;7.78;;;-1.70;99.90;;;;;;5030472;28;20037;-71
2021/12/21 08:09:33;;;;;;;12.77;7.93;;;-1.60;99.90;;;;;;5037367;28;20524;-70
2021/12/21 08:12:13;;;;;;;11.25;8.43;;;-1.70;99.90;;;;;;5028029;28;20050;-71
2021/12/21 08:14:39;;;;;;;15.70;8.90;;;-1.70;99.90;;;;;;5041927;28;20087;-71
2021/12/21 08:17:05;;;;;;;21.88;11.63;;;-1.60;99.90;;;;;;4995775;28;20129;-70
2021/12/21 08:19:31;;;;;;;26.15;13.00;;;-1.60;99.90;;;;;;5004692;28;20068;-70
2021/12/21 08:21:56;;;;;;;20.65;11.65;;;-1.60;99.90;;;;;;5030833;28;20615;-70
2021/12/21 08:24:25;;;;;;;16.48;9.38;;;-1.60;99.90;;;;;;5032470;28;20100;-70
2021/12/21 08:26:51;;;;;;;19.00;9.48;;;-1.60;99.90;;;;;;5032361;28;20597;-70
2021/12/21 08:29:16;;;;;;;15.20;9.52;;;-1.60;99.90;;;;;;5039730;28;20039;-70
2021/12/21 08:31:42;;;;;;;16.45;10.02;;;-1.50;99.90;;;;;;5052045;28;20044;-70
2021/12/21 08:34:10;;;;;;;19.83;10.82;;;-1.50;99.90;;;;;;5063447;28;20127;-71
2021/12/21 08:36:38;;;;;;;19.13;11.07;;;-1.50;99.90;;;;;;5053297;28;20433;-70
2021/12/21 08:39:05;;;;;;;19.52;10.70;;;-1.50;99.90;;;;;;5053000;28;20041;-71
2021/12/21 08:41:39;;;;;;;17.73;11.32;;;-1.50;99.90;;;;;;5050326;28;20044;-70
2021/12/21 08:44:05;;;;;;;28.95;14.75;;;-1.50;99.90;;;;;;5050658;28;20126;-70
2021/12/21 08:46:31;;;;;;;29.98;16.60;;;-1.50;99.90;;;;;;5051829;28;20120;-69
2021/12/21 08:48:56;;;;;;;30.20;14.63;;;-1.40;99.90;;;;;;5050762;28;20037;-70
2021/12/21 08:51:22;;;;;;;24.60;15.07;;;-1.40;99.90;;;;;;5050475;28;20508;-70
2021/12/21 08:53:47;;;;;;;27.17;15.00;;;-1.40;99.90;;;;;;5051466;28;20084;-70
2021/12/21 08:56:13;;;;;;;32.17;14.82;;;-1.30;99.90;;;;;;5050387;28;20052;-70
2021/12/21 08:58:39;;;;;;;28.15;14.98;;;-1.30;99.90;;;;;;5051238;28;20068;-72
2021/12/21 09:01:05;;;;;;;25.48;14.43;;;-1.30;99.90;;;;;;5017253;28;20034;-72
2021/12/21 09:03:31;;;;;;;32.63;16.73;;;-1.30;99.90;;;;;;5011702;28;20041;-72
2021/12/21 09:05:58;;;;;;;33.47;16.33;;;-1.20;99.90;;;;;;5012100;28;20041;-73
2021/12/21 09:08:23;;;;;;;27.17;15.43;;;-1.10;99.90;;;;;;5011097;28;20085;-72
2021/12/21 09:10:49;;;;;;;31.70;16.25;;;-1.00;99.90;;;;;;4995365;28;20459;-73
2021/12/21 09:13:17;;;;;;;28.52;15.32;;;-1.00;99.90;;;;;;5033869;28;20046;-73
2021/12/21 09:15:44;;;;;;;32.38;16.02;;;-0.90;99.90;;;;;;5035420;28;20057;-73
2021/12/21 09:18:10;;;;;;;24.90;14.15;;;-0.90;99.90;;;;;;4999450;28;20421;-72
2021/12/21 09:20:36;;;;;;;19.38;11.80;;;-0.80;99.90;;;;;;5010625;28;20042;-72
2021/12/21 09:23:02;;;;;;;17.45;10.35;;;-0.80;99.90;;;;;;5010140;28;20037;-70
2021/12/21 09:25:31;;;;;;;19.38;10.02;;;-0.80;99.90;;;;;;5010361;28;20045;-73
2021/12/21 09:27:57;;;;;;;15.25;10.60;;;-0.60;99.90;;;;;;5010243;28;20073;-73
2021/12/21 09:30:30;;;;;;;22.75;10.50;;;-0.60;99.90;;;;;;5011843;28;20120;-73
2021/12/21 09:32:57;;;;;;;21.08;10.35;;;-0.60;99.90;;;;;;5011445;28;20045;-74
2021/12/21 09:35:23;;;;;;;23.35;10.15;;;-0.50;99.90;;;;;;5010134;28;20112;-73
2021/12/21 09:37:49;;;;;;;19.70;10.55;;;-0.50;99.90;;;;;;5009969;28;20046;-72
2021/12/21 09:40:19;;;;;;;16.00;9.73;;;-0.40;99.90;;;;;;5009964;28;20042;-72
2021/12/21 09:42:45;;;;;;;14.80;9.23;;;-0.40;99.90;;;;;;5009608;28;20053;-71
2021/12/21 09:45:11;;;;;;;16.75;10.13;;;-0.40;99.90;;;;;;5010474;28;20116;-70
2021/12/21 09:47:37;;;;;;;16.17;9.65;;;-0.30;99.90;;;;;;5010268;28;20053;-71
2021/12/21 09:50:06;;;;;;;14.95;9.48;;;-0.30;99.90;;;;;;5011443;28;20217;-71
2021/12/21 09:52:33;;;;;;;15.02;10.23;;;-0.30;99.90;;;;;;4996020;28;20201;-72
2021/12/21 09:54:59;;;;;;;18.05;10.48;;;-0.30;99.90;;;;;;5017198;28;20510;-72
2021/12/21 09:57:26;;;;;;;15.95;10.50;;;-0.20;99.90;;;;;;5028293;28;20537;-74
2021/12/21 09:59:52;;;;;;;14.05;9.20;;;-0.10;99.90;;;;;;5025289;28;20077;-74
2021/12/21 10:02:21;;;;;;;19.58;10.95;;;-0.10;99.90;;;;;;5043083;28;20065;-73
2021/12/21 10:04:50;;;;;;;15.68;12.13;;;0.00;99.90;;;;;;5053478;28;20041;-74
2021/12/21 10:07:18;;;;;;;19.00;11.10;;;0.00;99.90;;;;;;5053389;28;20066;-74
2021/12/21 10:09:47;;;;;;;19.75;12.30;;;0.00;99.90;;;;;;5037298;28;20039;-74
2021/12/21 10:12:28;;;;;;;20.38;11.35;;;0.00;99.90;;;;;;5053085;28;20084;-73
2021/12/21 10:15:06;;;;;;;20.20;12.57;;;0.10;99.90;;;;;;5053547;28;20044;-73
2021/12/21 10:17:33;;;;;;;16.05;11.02;;;0.30;99.90;;;;;;5039614;28;20487;-73
2021/12/21 10:20:00;;;;;;;23.00;12.10;;;0.30;99.90;;;;;;5040395;28;20094;-72
2021/12/21 10:22:26;;;;;;;16.80;10.95;;;0.30;99.90;;;;;;5029380;28;20073;-73
2021/12/21 10:24:52;;;;;;;17.23;11.93;;;0.30;99.90;;;;;;5018211;28;20427;-73
2021/12/21 10:27:22;;;;;;;19.70;12.45;;;0.30;99.90;;;;;;5023334;28;20043;-74
2021/12/21 10:29:53;;;;;;;19.30;12.25;;;0.40;99.90;;;;;;5034137;28;20033;-73
2021/12/21 10:32:21;;;;;;;20.52;12.25;;;0.40;99.90;;;;;;5036563;28;20049;-74
2021/12/21 10:34:57;;;;;;;15.35;11.07;;;0.50;99.90;;;;;;5021535;28;20030;-74
2021/12/21 10:37:27;;;;;;;22.52;14.45;;;0.50;99.90;;;;;;5031769;28;20498;-74
2021/12/21 10:40:23;;;;;;;22.77;15.05;;;0.50;99.90;;;;;;5034356;28;20053;-73
2021/12/21 10:43:03;;;;;;;28.45;16.52;;;0.60;99.90;;;;;;5050103;28;20070;-75
2021/12/21 10:45:30;;;;;;;26.92;17.42;;;0.70;99.90;;;;;;5069364;28;20056;-73
2021/12/21 10:47:57;;;;;;;30.70;19.27;;;0.80;99.90;;;;;;5042701;28;20060;-73
2021/12/21 10:50:24;;;;;;;29.48;18.45;;;0.80;99.90;;;;;;5036076;28;20509;-75
2021/12/21 10:52:57;;;;;;;33.65;18.73;;;0.70;99.90;;;;;;5032226;28;20059;-73
2021/12/21 10:55:27;;;;;;;;;;;0.80;99.90;;;;;;5029475;28;20052;-74
2021/12/21 10:58:04;;;;;;;27.10;17.80;;;0.90;99.90;;;;;;5026416;28;20378;-73
2021/12/21 11:00:30;;;;;;;28.73;17.60;;;0.90;99.90;;;;;;5008676;28;20440;-73
2021/12/21 11:02:59;;;;;;;29.27;18.67;;;0.90;99.90;;;;;;5024464;28;20038;-73
2021/12/21 11:05:27;;;;;;;26.55;17.98;;;1.00;99.90;;;;;;5025999;28;20509;-74
2021/12/21 11:08:00;;;;;;;25.80;18.63;;;1.00;99.90;;;;;;5030008;28;20069;-73
2021/12/21 11:10:30;;;;;;;32.80;18.23;;;1.00;99.90;;;;;;5012517;28;20367;-75
2021/12/21 11:13:09;;;;;;;35.80;18.25;;;1.20;99.90;;;;;;5022079;28;20045;-73
2021/12/21 11:15:40;;;;;;;29.38;17.42;;;1.10;99.90;;;;;;5033145;28;20045;-74
2021/12/21 11:18:09;;;;;;;27.70;17.27;;;1.20;99.90;;;;;;5029823;28;20151;-74
2021/12/21 11:20:37;;;;;;;28.08;17.45;;;1.20;99.90;;;;;;5023015;28;20050;-73
2021/12/21 11:23:06;;;;;;;26.42;17.17;;;1.20;99.90;;;;;;5030150;28;20042;-73
2021/12/21 11:25:35;;;;;;;28.73;18.35;;;1.30;99.90;;;;;;5026440;28;20037;-78
2021/12/21 11:28:03;;;;;;;27.00;18.10;;;1.40;99.90;;;;;;5020877;28;20038;-74
2021/12/21 11:30:30;;;;;;;29.92;17.58;;;1.40;99.90;;;;;;5013455;28;20038;-71
2021/12/21 11:32:57;;;;;;;27.58;18.95;;;1.40;99.90;;;;;;5011860;28;20468;-72
2021/12/21 11:37:55;;;;;;;28.33;17.90;;;1.40;99.90;;;;;;5011850;28;20058;-71
2021/12/21 11:40:31;;;;;;;40.30;19.38;;;1.50;99.90;;;;;;5013093;28;20398;-72
2021/12/21 11:43:16;;;;;;;27.40;18.02;;;1.50;99.90;;;;;;5011444;28;20046;-71
2021/12/21 11:45:48;;;;;;;26.73;17.55;;;1.50;99.90;;;;;;5029680;28;20038;-71
2021/12/21 11:48:41;;;;;;;30.10;18.30;;;1.60;99.90;;;;;;5032845;28;20405;-74
2021/12/21 11:51:09;;;;;;;27.27;17.73;;;1.70;99.90;;;;;;5033071;28;20037;-73
2021/12/21 11:53:36;;;;;;;30.92;18.20;;;1.70;99.90;;;;;;5030489;28;20112;-73
2021/12/21 11:56:02;;;;;;;32.83;19.40;;;1.80;99.90;;;;;;5031268;28;20584;-74
2021/12/21 11:58:40;;;;;;;32.78;18.90;;;1.70;99.90;;;;;;5031624;28;20037;-73
2021/12/21 12:01:12;;;;;;;30.27;18.23;;;1.80;99.90;;;;;;5031589;28;20045;-74
2021/12/21 12:03:39;;;;;;;29.38;18.42;;;1.80;99.90;;;;;;5031788;28;20045;-73
2021/12/21 12:06:15;;;;;;;25.02;17.73;;;1.90;99.90;;;;;;5035392;28;20128;-73
2021/12/21 12:08:56;;;;;;;29.75;18.15;;;1.90;99.90;;;;;;5031975;28;20045;-72
2021/12/21 12:11:39;;;;;;;29.50;18.23;;;2.40;99.90;;;;;;5033125;28;20072;-70
2021/12/21 12:14:18;;;;;;;32.30;19.77;;;2.10;99.90;;;;;;5034326;28;20466;-70
2021/12/21 12:16:43;;;;;;;32.25;19.10;;;2.00;99.90;;;;;;5032549;28;20045;-70
2021/12/21 12:19:13;;;;;;;27.75;18.98;;;2.00;99.90;;;;;;5032285;28;20517;-71
2021/12/21 12:21:38;;;;;;;29.30;16.75;;;1.90;99.90;;;;;;5032189;28;20091;-70
2021/12/21 12:24:17;;;;;;;39.20;19.48;;;1.90;99.90;;;;;;5031916;28;20042;-70
2021/12/21 12:26:42;;;;;;;31.15;17.65;;;2.00;99.90;;;;;;5031854;28;20596;-70
2021/12/21 12:29:17;;;;;;;28.05;17.85;;;2.10;99.90;;;;;;5031980;28;20099;-70
2021/12/21 12:31:56;;;;;;;35.85;17.98;;;2.10;99.90;;;;;;5033402;28;20044;-71
2021/12/21 12:34:27;;;;;;;26.88;17.65;;;2.10;99.90;;;;;;5033078;28;20088;-70
2021/12/21 12:36:55;;;;;;;26.58;16.98;;;2.10;99.90;;;;;;5033083;28;20042;-71
2021/12/21 12:39:51;;;;;;;35.83;19.33;;;2.10;99.90;;;;;;5031917;28;20041;-70
2021/12/21 12:42:23;;;;;;;35.50;18.48;;;2.10;99.90;;;;;;5029684;28;20691;-70
2021/12/21 12:45:03;;;;;;;32.30;18.70;;;2.20;99.90;;;;;;5030522;28;20044;-70
2021/12/21 12:47:29;;;;;;;32.33;19.70;;;2.20;99.90;;;;;;5031907;28;20462;-70
2021/12/21 12:49:55;;;;;;;30.33;19.75;;;2.20;99.90;;;;;;5031654;28;20116;-70
2021/12/21 12:52:28;;;;;;;36.47;19.52;;;2.20;99.90;;;;;;5031359;28;20129;-70
2021/12/21 12:54:58;;;;;;;36.08;18.50;;;2.20;99.90;;;;;;5031821;28;20120;-70
2021/12/21 12:57:33;;;;;;;30.83;20.08;;;2.30;99.90;;;;;;5031637;28;20392;-71
2021/12/21 13:00:13;;;;;;;30.45;19.85;;;2.30;99.90;;;;;;5031570;28;20068;-70
2021/12/21 13:02:58;;;;;;;33.25;19.20;;;2.30;99.90;;;;;;5030039;28;20046;-71
2021/12/21 13:05:27;;;;;;;26.35;17.98;;;2.40;99.90;;;;;;5031563;28;20124;-71
2021/12/21 13:07:52;;;;;;;31.17;20.08;;;2.40;99.90;;;;;;5031340;28;20045;-71
2021/12/21 13:10:21;;;;;;;29.58;17.05;;;2.50;99.90;;;;;;5031431;28;20052;-71
2021/12/21 13:12:56;;;;;;;32.97;17.92;;;2.60;99.90;;;;;;5031052;28;20124;-71
2021/12/21 13:15:32;;;;;;;33.05;18.48;;;2.60;99.90;;;;;;5031255;28;20096;-70
2021/12/21 13:18:03;;;;;;;28.23;18.15;;;2.60;99.90;;;;;;5031391;28;20047;-71
2021/12/21 13:20:30;;;;;;;26.37;17.77;;;2.50;99.90;;;;;;5031199;28;20041;-71
2021/12/21 13:22:55;;;;;;;28.55;19.23;;;2.60;99.90;;;;;;5030418;28;20049;-74
2021/12/21 13:25:21;;;;;;;34.08;19.10;;;3.40;99.90;;;;;;5031273;28;20038;-73
2021/12/21 13:27:46;;;;;;;28.88;17.55;;;3.20;99.90;;;;;;5012262;28;20052;-75
2021/12/21 13:30:17;;;;;;;29.95;17.70;;;3.30;99.90;;;;;;5013409;28;20037;-74
2021/12/21 13:32:43;;;;;;;29.35;16.48;;;3.20;99.90;;;;;;5030310;28;20812;-74
2021/12/21 13:35:14;;;;;;;29.50;17.33;;;3.10;99.90;;;;;;5031051;28;20049;-75
2021/12/21 13:37:40;;;;;;;28.90;17.55;;;3.10;99.90;;;;;;5035451;28;20037;-74
2021/12/21 13:40:06;;;;;;;28.88;16.75;;;3.10;99.90;;;;;;5034751;28;20122;-74
2021/12/21 13:42:32;;;;;;;27.90;16.58;;;3.10;99.90;;;;;;5030108;28;20056;-74
2021/12/21 13:45:01;;;;;;;30.83;17.75;;;3.10;99.90;;;;;;5013453;28;20115;-74
2021/12/21 13:47:29;;;;;;;24.67;16.15;;;3.10;99.90;;;;;;5030777;28;20037;-74
2021/12/21 13:50:01;;;;;;;28.55;18.13;;;3.10;99.90;;;;;;5031728;28;20140;-75
2021/12/21 13:52:30;;;;;;;26.55;16.98;;;3.00;99.90;;;;;;5042360;28;20048;-74
2021/12/21 13:54:56;;;;;;;24.55;16.02;;;3.00;99.90;;;;;;5035616;28;20120;-74
2021/12/21 13:57:22;;;;;;;28.90;15.50;;;3.00;99.90;;;;;;5030067;28;20045;-72